AUA73CP LOWW-LBSF
Flight info
| Callsign | AUA73CP |
|---|---|
| Flight time | 1h 21m |
| Altitude | 33000 |
| Route | ARSIN DCT NALOX DCT BABIT DCT RAVAK DCT NISVA |
| Aircraft | B738/M-SDE2E3FGHIRWXY/LB1 |
Departure
| Time | 2026-04-20 12:52 |
|---|---|
| Airport | Vienna International Airport (LOWW) |
Arrival
| Time | 2026-04-20 14:13 |
|---|---|
| Airport | Sofia Airport (LBSF) |
| Time | Latitude | Longitude | Altitude | Speed | Heading |
|---|---|---|---|---|---|
| 2026-04-20 12:39 | 48.11467 | 16.57018 | 606 ft | 0 kts | 206° |
| 2026-04-20 12:43 | 48.11463 | 16.57016 | 606 ft | 1 kts | 205° |
| 2026-04-20 12:43 | 48.11451 | 16.57008 | 606 ft | 2 kts | 202° |
| 2026-04-20 12:43 | 48.11441 | 16.57003 | 606 ft | 0 kts | 200° |
| 2026-04-20 12:43 | 48.11429 | 16.56998 | 606 ft | 4 kts | 185° |
| 2026-04-20 12:44 | 48.11393 | 16.57022 | 606 ft | 4 kts | 137° |
| 2026-04-20 12:44 | 48.11359 | 16.57054 | 606 ft | 8 kts | 162° |
| 2026-04-20 12:44 | 48.11306 | 16.57056 | 606 ft | 9 kts | 170° |
| 2026-04-20 12:44 | 48.11265 | 16.57111 | 605 ft | 8 kts | 117° |
| 2026-04-20 12:45 | 48.11243 | 16.57176 | 605 ft | 5 kts | 117° |
| 2026-04-20 12:45 | 48.11229 | 16.57215 | 604 ft | 3 kts | 120° |
| 2026-04-20 12:45 | 48.11207 | 16.57278 | 604 ft | 9 kts | 116° |
| 2026-04-20 12:45 | 48.11173 | 16.57379 | 602 ft | 11 kts | 117° |
| 2026-04-20 12:46 | 48.11139 | 16.57483 | 600 ft | 11 kts | 118° |
| 2026-04-20 12:46 | 48.11085 | 16.57524 | 600 ft | 7 kts | 186° |
| 2026-04-20 12:46 | 48.11074 | 16.57520 | 600 ft | 0 kts | 199° |
| 2026-04-20 12:50 | 48.11049 | 16.57505 | 600 ft | 7 kts | 206° |
| 2026-04-20 12:50 | 48.11010 | 16.57476 | 600 ft | 6 kts | 208° |
| 2026-04-20 12:51 | 48.10975 | 16.57443 | 601 ft | 4 kts | 230° |
| 2026-04-20 12:51 | 48.10967 | 16.57395 | 602 ft | 5 kts | 281° |
| 2026-04-20 12:51 | 48.10975 | 16.57356 | 603 ft | 4 kts | 292° |
| 2026-04-20 12:51 | 48.11085 | 16.57016 | 605 ft | 68 kts | 297° |
| 2026-04-20 12:52 | 48.11386 | 16.56096 | 589 ft | 131 kts | 296° |
| 2026-04-20 12:52 | 48.11890 | 16.54577 | 636 ft | 185 kts | 297° |
| 2026-04-20 12:52 | 48.12533 | 16.52849 | 1299 ft | 199 kts | 302° |
| 2026-04-20 12:52 | 48.13075 | 16.50989 | 1900 ft | 198 kts | 277° |
| 2026-04-20 12:53 | 48.12709 | 16.49001 | 2279 ft | 212 kts | 234° |
| 2026-04-20 12:53 | 48.11451 | 16.47862 | 2713 ft | 224 kts | 192° |
| 2026-04-20 12:53 | 48.09860 | 16.48152 | 3185 ft | 237 kts | 167° |
| 2026-04-20 12:53 | 48.08247 | 16.48658 | 3624 ft | 240 kts | 180° |
| 2026-04-20 12:54 | 48.06594 | 16.48669 | 4049 ft | 236 kts | 191° |
| 2026-04-20 12:54 | 48.05078 | 16.48007 | 4451 ft | 226 kts | 219° |
| 2026-04-20 12:54 | 48.03786 | 16.46694 | 4915 ft | 225 kts | 221° |
| 2026-04-20 12:54 | 48.02458 | 16.45370 | 5348 ft | 244 kts | 220° |
| 2026-04-20 12:55 | 48.00958 | 16.43924 | 5780 ft | 259 kts | 219° |
| 2026-04-20 12:55 | 47.99425 | 16.42530 | 6197 ft | 264 kts | 211° |
| 2026-04-20 12:55 | 47.97606 | 16.41940 | 6602 ft | 279 kts | 180° |
| 2026-04-20 12:55 | 47.95703 | 16.42577 | 7060 ft | 285 kts | 168° |
| 2026-04-20 12:56 | 47.93780 | 16.43353 | 7490 ft | 288 kts | 171° |
| 2026-04-20 12:56 | 47.91829 | 16.44050 | 7920 ft | 287 kts | 171° |
| 2026-04-20 12:56 | 47.89907 | 16.44719 | 8345 ft | 286 kts | 171° |
| 2026-04-20 12:56 | 47.87949 | 16.45403 | 8780 ft | 289 kts | 171° |
| 2026-04-20 12:57 | 47.86000 | 16.46085 | 9207 ft | 291 kts | 171° |
| 2026-04-20 12:57 | 47.84011 | 16.46789 | 9640 ft | 297 kts | 171° |
| 2026-04-20 12:57 | 47.81992 | 16.47501 | 10069 ft | 301 kts | 171° |
| 2026-04-20 12:57 | 47.79955 | 16.48215 | 10497 ft | 303 kts | 171° |
| 2026-04-20 12:58 | 47.77900 | 16.48942 | 10928 ft | 304 kts | 171° |
| 2026-04-20 12:58 | 47.75786 | 16.49683 | 11373 ft | 323 kts | 171° |
| 2026-04-20 12:58 | 47.73541 | 16.50460 | 11806 ft | 346 kts | 171° |
| 2026-04-20 12:58 | 47.71126 | 16.51303 | 12237 ft | 366 kts | 171° |
| 2026-04-20 12:59 | 47.68605 | 16.52188 | 12664 ft | 372 kts | 171° |
| 2026-04-20 12:59 | 47.66095 | 16.53095 | 13094 ft | 374 kts | 168° |
| 2026-04-20 12:59 | 47.63735 | 16.54652 | 13497 ft | 383 kts | 147° |
| 2026-04-20 12:59 | 47.61878 | 16.57536 | 13934 ft | 391 kts | 122° |
| 2026-04-20 13:00 | 47.60737 | 16.61187 | 14401 ft | 396 kts | 112° |
| 2026-04-20 13:00 | 47.59716 | 16.64980 | 14831 ft | 398 kts | 112° |
| 2026-04-20 13:00 | 47.58648 | 16.68738 | 15265 ft | 399 kts | 115° |
| 2026-04-20 13:00 | 47.57222 | 16.72257 | 15690 ft | 398 kts | 131° |
| 2026-04-20 13:01 | 47.55274 | 16.75105 | 16136 ft | 397 kts | 143° |
| 2026-04-20 13:01 | 47.52999 | 16.77388 | 16574 ft | 395 kts | 157° |
| 2026-04-20 13:01 | 47.50444 | 16.78704 | 17014 ft | 391 kts | 173° |
| 2026-04-20 13:01 | 47.47773 | 16.79130 | 17459 ft | 387 kts | 185° |
| 2026-04-20 13:02 | 47.45102 | 16.78792 | 17906 ft | 384 kts | 193° |
| 2026-04-20 13:02 | 47.42470 | 16.78069 | 18351 ft | 384 kts | 197° |
| 2026-04-20 13:02 | 47.39840 | 16.77454 | 18783 ft | 391 kts | 188° |
| 2026-04-20 13:02 | 47.37105 | 16.77441 | 19232 ft | 396 kts | 182° |
| 2026-04-20 13:03 | 47.34372 | 16.77655 | 19679 ft | 399 kts | 181° |
| 2026-04-20 13:03 | 47.31590 | 16.77899 | 20121 ft | 403 kts | 181° |
| 2026-04-20 13:03 | 47.28779 | 16.78145 | 20571 ft | 405 kts | 181° |
| 2026-04-20 13:03 | 47.25958 | 16.78388 | 21020 ft | 408 kts | 181° |
| 2026-04-20 13:04 | 47.23112 | 16.78637 | 21475 ft | 411 kts | 181° |
| 2026-04-20 13:04 | 47.20278 | 16.78893 | 21922 ft | 414 kts | 181° |
| 2026-04-20 13:04 | 47.17406 | 16.79160 | 22372 ft | 416 kts | 181° |
| 2026-04-20 13:04 | 47.14476 | 16.79433 | 22832 ft | 418 kts | 181° |
| 2026-04-20 13:05 | 47.11579 | 16.79700 | 23290 ft | 421 kts | 181° |
| 2026-04-20 13:05 | 47.08643 | 16.79981 | 23752 ft | 426 kts | 181° |
| 2026-04-20 13:05 | 47.05677 | 16.80263 | 24207 ft | 429 kts | 181° |
| 2026-04-20 13:05 | 47.02715 | 16.80539 | 24656 ft | 432 kts | 181° |
| 2026-04-20 13:06 | 46.99707 | 16.80823 | 25109 ft | 435 kts | 181° |
| 2026-04-20 13:06 | 46.96699 | 16.81122 | 25552 ft | 438 kts | 180° |
| 2026-04-20 13:06 | 46.93657 | 16.81783 | 25991 ft | 447 kts | 173° |
| 2026-04-20 13:06 | 46.90651 | 16.83146 | 26427 ft | 459 kts | 161° |
| 2026-04-20 13:07 | 46.87825 | 16.85351 | 26870 ft | 470 kts | 151° |
| 2026-04-20 13:07 | 46.85184 | 16.88221 | 27311 ft | 479 kts | 141° |
| 2026-04-20 13:07 | 46.82908 | 16.91794 | 27745 ft | 486 kts | 129° |
| 2026-04-20 13:07 | 46.80990 | 16.95857 | 28210 ft | 491 kts | 124° |
| 2026-04-20 13:08 | 46.79185 | 17.00059 | 28632 ft | 495 kts | 123° |
| 2026-04-20 13:08 | 46.77363 | 17.04300 | 29078 ft | 499 kts | 123° |
| 2026-04-20 13:08 | 46.75511 | 17.08602 | 29500 ft | 502 kts | 123° |
| 2026-04-20 13:08 | 46.73653 | 17.12887 | 29935 ft | 504 kts | 123° |
| 2026-04-20 13:09 | 46.71791 | 17.17177 | 30369 ft | 507 kts | 123° |
| 2026-04-20 13:09 | 46.69902 | 17.21525 | 30817 ft | 510 kts | 123° |
| 2026-04-20 13:09 | 46.68003 | 17.25888 | 31214 ft | 513 kts | 123° |
| 2026-04-20 13:09 | 46.66112 | 17.30242 | 31600 ft | 515 kts | 123° |
| 2026-04-20 13:10 | 46.64174 | 17.34688 | 32002 ft | 518 kts | 123° |
| 2026-04-20 13:10 | 46.62265 | 17.39053 | 32264 ft | 519 kts | 123° |
| 2026-04-20 13:10 | 46.60342 | 17.43441 | 32347 ft | 509 kts | 123° |
| 2026-04-20 13:10 | 46.58469 | 17.47722 | 32426 ft | 495 kts | 123° |
| 2026-04-20 13:11 | 46.56654 | 17.51867 | 32471 ft | 481 kts | 123° |
| 2026-04-20 13:11 | 46.53090 | 17.59954 | 32618 ft | 481 kts | 124° |
| 2026-04-20 13:12 | 46.48877 | 17.67539 | 32682 ft | 486 kts | 129° |
| 2026-04-20 13:12 | 46.45447 | 17.75880 | 32814 ft | 482 kts | 120° |
| 2026-04-20 13:13 | 46.42080 | 17.84225 | 32911 ft | 482 kts | 122° |
| 2026-04-20 13:13 | 46.38585 | 17.92407 | 32970 ft | 480 kts | 123° |
| 2026-04-20 13:14 | 46.35015 | 18.00560 | 32997 ft | 480 kts | 123° |
| 2026-04-20 13:14 | 46.31433 | 18.08649 | 33020 ft | 478 kts | 124° |
| 2026-04-20 13:15 | 46.27870 | 18.16623 | 33486 ft | 472 kts | 124° |
| 2026-04-20 13:15 | 46.26057 | 18.20660 | 33592 ft | 480 kts | 124° |
| 2026-04-20 13:15 | 46.24236 | 18.24717 | 33603 ft | 486 kts | 124° |
| 2026-04-20 13:16 | 46.20614 | 18.32784 | 33615 ft | 475 kts | 124° |
| 2026-04-20 13:16 | 46.17023 | 18.40721 | 33635 ft | 475 kts | 124° |
| 2026-04-20 13:17 | 46.13400 | 18.48692 | 33648 ft | 478 kts | 124° |
| 2026-04-20 13:17 | 46.09791 | 18.56630 | 33670 ft | 474 kts | 124° |
| 2026-04-20 13:18 | 46.06167 | 18.64566 | 33672 ft | 475 kts | 124° |
| 2026-04-20 13:18 | 46.02554 | 18.72463 | 33694 ft | 475 kts | 125° |
| 2026-04-20 13:19 | 45.98930 | 18.80364 | 33727 ft | 475 kts | 125° |
| 2026-04-20 13:19 | 45.95261 | 18.88230 | 33729 ft | 473 kts | 128° |
| 2026-04-20 13:20 | 45.91016 | 18.95363 | 33736 ft | 468 kts | 140° |
| 2026-04-20 13:20 | 45.86149 | 19.01553 | 33753 ft | 469 kts | 141° |
| 2026-04-20 13:21 | 45.81314 | 19.07733 | 33751 ft | 468 kts | 141° |
| 2026-04-20 13:21 | 45.76461 | 19.13894 | 33762 ft | 468 kts | 141° |
| 2026-04-20 13:22 | 45.71602 | 19.20029 | 33767 ft | 467 kts | 141° |
| 2026-04-20 13:22 | 45.66714 | 19.26177 | 33760 ft | 467 kts | 141° |
| 2026-04-20 13:23 | 45.61866 | 19.32244 | 33756 ft | 467 kts | 141° |
| 2026-04-20 13:23 | 45.56966 | 19.38363 | 33773 ft | 468 kts | 141° |
| 2026-04-20 13:24 | 45.52088 | 19.44438 | 33772 ft | 466 kts | 141° |
| 2026-04-20 13:24 | 45.47216 | 19.50483 | 33781 ft | 466 kts | 141° |
| 2026-04-20 13:25 | 45.42339 | 19.56524 | 33793 ft | 468 kts | 141° |
| 2026-04-20 13:25 | 45.37442 | 19.62581 | 33778 ft | 467 kts | 141° |
| 2026-04-20 13:26 | 45.32554 | 19.68610 | 33778 ft | 466 kts | 142° |
| 2026-04-20 13:26 | 45.27647 | 19.74644 | 33541 ft | 468 kts | 142° |
| 2026-04-20 13:27 | 45.22762 | 19.80636 | 33405 ft | 464 kts | 142° |
| 2026-04-20 13:27 | 45.17871 | 19.86614 | 33293 ft | 467 kts | 142° |
| 2026-04-20 13:28 | 45.12950 | 19.92622 | 33182 ft | 467 kts | 142° |
| 2026-04-20 13:28 | 45.08043 | 19.98598 | 33073 ft | 465 kts | 142° |
| 2026-04-20 13:29 | 45.03155 | 20.04548 | 32960 ft | 465 kts | 142° |
| 2026-04-20 13:29 | 45.00743 | 20.07484 | 33352 ft | 457 kts | 142° |
| 2026-04-20 13:29 | 44.98334 | 20.10398 | 33682 ft | 459 kts | 142° |
| 2026-04-20 13:30 | 44.93417 | 20.16324 | 33698 ft | 472 kts | 142° |
| 2026-04-20 13:30 | 44.88480 | 20.22284 | 33648 ft | 463 kts | 142° |
| 2026-04-20 13:31 | 44.83593 | 20.28165 | 33605 ft | 464 kts | 142° |
| 2026-04-20 13:31 | 44.78677 | 20.34079 | 33558 ft | 467 kts | 142° |
| 2026-04-20 13:32 | 44.73748 | 20.39987 | 33507 ft | 464 kts | 142° |
| 2026-04-20 13:32 | 44.68840 | 20.45857 | 33453 ft | 464 kts | 142° |
| 2026-04-20 13:33 | 44.63930 | 20.51710 | 33397 ft | 465 kts | 142° |
| 2026-04-20 13:33 | 44.59019 | 20.57557 | 33339 ft | 464 kts | 142° |
| 2026-04-20 13:34 | 44.54113 | 20.63380 | 33296 ft | 462 kts | 142° |
| 2026-04-20 13:34 | 44.49217 | 20.69182 | 33231 ft | 463 kts | 142° |
| 2026-04-20 13:35 | 44.44303 | 20.74989 | 33181 ft | 464 kts | 142° |
| 2026-04-20 13:35 | 44.39378 | 20.80794 | 33136 ft | 464 kts | 142° |
| 2026-04-20 13:36 | 44.34464 | 20.86583 | 33089 ft | 461 kts | 142° |
| 2026-04-20 13:36 | 44.29561 | 20.92328 | 33041 ft | 461 kts | 142° |
| 2026-04-20 13:37 | 44.24677 | 20.98028 | 32995 ft | 461 kts | 142° |
| 2026-04-20 13:37 | 44.19760 | 21.03775 | 32954 ft | 462 kts | 142° |
| 2026-04-20 13:38 | 44.14858 | 21.09498 | 32909 ft | 461 kts | 142° |
| 2026-04-20 13:38 | 44.09963 | 21.15210 | 32822 ft | 462 kts | 142° |
| 2026-04-20 13:38 | 44.07514 | 21.18060 | 32469 ft | 462 kts | 142° |
| 2026-04-20 13:39 | 44.05056 | 21.20907 | 32076 ft | 460 kts | 142° |
| 2026-04-20 13:39 | 44.02621 | 21.23726 | 31694 ft | 458 kts | 142° |
| 2026-04-20 13:39 | 44.00181 | 21.26535 | 31303 ft | 457 kts | 142° |
| 2026-04-20 13:39 | 43.97744 | 21.29340 | 30911 ft | 455 kts | 142° |
| 2026-04-20 13:40 | 43.95319 | 21.32150 | 30472 ft | 453 kts | 142° |
| 2026-04-20 13:40 | 43.92905 | 21.34931 | 30031 ft | 452 kts | 142° |
| 2026-04-20 13:40 | 43.90496 | 21.37701 | 29592 ft | 450 kts | 142° |
| 2026-04-20 13:40 | 43.88088 | 21.40446 | 29153 ft | 448 kts | 142° |
| 2026-04-20 13:41 | 43.85685 | 21.43181 | 28714 ft | 446 kts | 142° |
| 2026-04-20 13:41 | 43.83296 | 21.45905 | 28276 ft | 445 kts | 142° |
| 2026-04-20 13:41 | 43.80971 | 21.48618 | 27842 ft | 443 kts | 142° |
| 2026-04-20 13:41 | 43.78622 | 21.51368 | 27402 ft | 441 kts | 142° |
| 2026-04-20 13:42 | 43.76285 | 21.54085 | 26972 ft | 439 kts | 142° |
| 2026-04-20 13:42 | 43.71580 | 21.59448 | 26098 ft | 437 kts | 141° |
| 2026-04-20 13:42 | 43.69387 | 21.62283 | 25658 ft | 437 kts | 134° |
| 2026-04-20 13:43 | 43.67376 | 21.65389 | 25231 ft | 436 kts | 133° |
| 2026-04-20 13:43 | 43.65405 | 21.68569 | 24785 ft | 434 kts | 132° |
| 2026-04-20 13:43 | 43.63460 | 21.71728 | 24343 ft | 432 kts | 132° |
| 2026-04-20 13:43 | 43.61529 | 21.74866 | 23903 ft | 431 kts | 132° |
| 2026-04-20 13:44 | 43.59598 | 21.78018 | 23468 ft | 429 kts | 132° |
| 2026-04-20 13:44 | 43.57680 | 21.81161 | 23036 ft | 428 kts | 131° |
| 2026-04-20 13:44 | 43.55775 | 21.84296 | 22604 ft | 426 kts | 131° |
| 2026-04-20 13:44 | 43.53904 | 21.87381 | 22178 ft | 425 kts | 131° |
| 2026-04-20 13:45 | 43.52016 | 21.90496 | 21754 ft | 423 kts | 131° |
| 2026-04-20 13:45 | 43.50139 | 21.93591 | 21331 ft | 422 kts | 131° |
| 2026-04-20 13:45 | 43.48255 | 21.96696 | 20909 ft | 420 kts | 131° |
| 2026-04-20 13:45 | 43.46388 | 21.99773 | 20487 ft | 419 kts | 131° |
| 2026-04-20 13:46 | 43.44545 | 22.02808 | 20069 ft | 417 kts | 131° |
| 2026-04-20 13:46 | 43.42693 | 22.05858 | 19654 ft | 416 kts | 130° |
| 2026-04-20 13:46 | 43.40840 | 22.08903 | 19233 ft | 415 kts | 130° |
| 2026-04-20 13:46 | 43.38995 | 22.11937 | 18794 ft | 412 kts | 130° |
| 2026-04-20 13:47 | 43.37177 | 22.14928 | 18173 ft | 403 kts | 130° |
| 2026-04-20 13:47 | 43.35409 | 22.17838 | 17772 ft | 390 kts | 130° |
| 2026-04-20 13:47 | 43.33699 | 22.20653 | 17371 ft | 379 kts | 130° |
| 2026-04-20 13:47 | 43.32038 | 22.23382 | 16972 ft | 369 kts | 130° |
| 2026-04-20 13:48 | 43.30420 | 22.26035 | 16572 ft | 360 kts | 130° |
| 2026-04-20 13:48 | 43.28848 | 22.28613 | 16180 ft | 352 kts | 130° |
| 2026-04-20 13:48 | 43.27282 | 22.31171 | 15762 ft | 344 kts | 131° |
| 2026-04-20 13:48 | 43.25779 | 22.33623 | 15366 ft | 338 kts | 130° |
| 2026-04-20 13:49 | 43.24274 | 22.36087 | 14962 ft | 331 kts | 131° |
| 2026-04-20 13:49 | 43.22816 | 22.38461 | 14557 ft | 326 kts | 131° |
| 2026-04-20 13:49 | 43.21370 | 22.40806 | 14161 ft | 320 kts | 131° |
| 2026-04-20 13:49 | 43.19933 | 22.43140 | 13759 ft | 316 kts | 131° |
| 2026-04-20 13:50 | 43.18533 | 22.45412 | 13362 ft | 311 kts | 131° |
| 2026-04-20 13:50 | 43.17151 | 22.47654 | 12966 ft | 307 kts | 131° |
| 2026-04-20 13:50 | 43.15790 | 22.49867 | 12567 ft | 304 kts | 131° |
| 2026-04-20 13:50 | 43.14436 | 22.52069 | 12172 ft | 300 kts | 131° |
| 2026-04-20 13:51 | 43.13100 | 22.54234 | 11773 ft | 298 kts | 131° |
| 2026-04-20 13:51 | 43.11763 | 22.56401 | 11375 ft | 298 kts | 131° |
| 2026-04-20 13:51 | 43.10441 | 22.58541 | 11010 ft | 294 kts | 131° |
| 2026-04-20 13:51 | 43.09140 | 22.60643 | 10936 ft | 290 kts | 131° |
| 2026-04-20 13:52 | 43.07814 | 22.62777 | 10928 ft | 295 kts | 131° |
| 2026-04-20 13:52 | 43.06484 | 22.64924 | 10914 ft | 295 kts | 131° |
| 2026-04-20 13:52 | 43.05164 | 22.67055 | 10912 ft | 294 kts | 132° |
| 2026-04-20 13:52 | 43.03841 | 22.69188 | 10908 ft | 295 kts | 132° |
| 2026-04-20 13:53 | 43.02506 | 22.71341 | 10892 ft | 295 kts | 133° |
| 2026-04-20 13:53 | 43.01178 | 22.73473 | 10778 ft | 297 kts | 133° |
| 2026-04-20 13:53 | 42.99861 | 22.75590 | 10601 ft | 293 kts | 133° |
| 2026-04-20 13:53 | 42.98537 | 22.77723 | 10432 ft | 291 kts | 133° |
| 2026-04-20 13:54 | 42.97228 | 22.79829 | 10266 ft | 290 kts | 133° |
| 2026-04-20 13:54 | 42.95945 | 22.81881 | 10083 ft | 279 kts | 133° |
| 2026-04-20 13:54 | 42.94724 | 22.83833 | 9906 ft | 268 kts | 133° |
| 2026-04-20 13:54 | 42.93525 | 22.85745 | 9730 ft | 259 kts | 133° |
| 2026-04-20 13:55 | 42.92360 | 22.87602 | 9600 ft | 260 kts | 134° |
| 2026-04-20 13:55 | 42.91198 | 22.89451 | 9554 ft | 251 kts | 134° |
| 2026-04-20 13:55 | 42.90070 | 22.91237 | 9551 ft | 248 kts | 133° |
| 2026-04-20 13:55 | 42.88933 | 22.93031 | 9559 ft | 250 kts | 133° |
| 2026-04-20 13:56 | 42.87801 | 22.94827 | 9552 ft | 250 kts | 133° |
| 2026-04-20 13:56 | 42.86680 | 22.96616 | 9554 ft | 250 kts | 133° |
| 2026-04-20 13:56 | 42.85545 | 22.98424 | 9552 ft | 251 kts | 133° |
| 2026-04-20 13:56 | 42.84407 | 23.00231 | 9548 ft | 250 kts | 133° |
| 2026-04-20 13:57 | 42.83282 | 23.02016 | 9542 ft | 250 kts | 133° |
| 2026-04-20 13:57 | 42.82143 | 23.03822 | 9540 ft | 251 kts | 133° |
| 2026-04-20 13:57 | 42.81005 | 23.05623 | 9535 ft | 251 kts | 133° |
| 2026-04-20 13:57 | 42.79877 | 23.07406 | 9533 ft | 251 kts | 133° |
| 2026-04-20 13:58 | 42.78731 | 23.09219 | 9535 ft | 252 kts | 133° |
| 2026-04-20 13:58 | 42.77598 | 23.11009 | 9537 ft | 251 kts | 133° |
| 2026-04-20 13:58 | 42.76449 | 23.12834 | 9543 ft | 252 kts | 133° |
| 2026-04-20 13:58 | 42.75309 | 23.14633 | 9552 ft | 251 kts | 133° |
| 2026-04-20 13:59 | 42.74175 | 23.16420 | 9563 ft | 250 kts | 133° |
| 2026-04-20 13:59 | 42.73042 | 23.18210 | 9561 ft | 249 kts | 133° |
| 2026-04-20 13:59 | 42.71917 | 23.19976 | 9552 ft | 249 kts | 133° |
| 2026-04-20 13:59 | 42.70777 | 23.21767 | 9572 ft | 250 kts | 133° |
| 2026-04-20 14:00 | 42.69637 | 23.23559 | 9572 ft | 250 kts | 133° |
| 2026-04-20 14:00 | 42.68509 | 23.25334 | 9565 ft | 249 kts | 133° |
| 2026-04-20 14:00 | 42.67385 | 23.27110 | 9566 ft | 250 kts | 133° |
| 2026-04-20 14:00 | 42.66257 | 23.28892 | 9513 ft | 241 kts | 133° |
| 2026-04-20 14:01 | 42.65184 | 23.30575 | 9211 ft | 236 kts | 133° |
| 2026-04-20 14:01 | 42.64123 | 23.32236 | 8835 ft | 233 kts | 133° |
| 2026-04-20 14:01 | 42.63058 | 23.33912 | 8452 ft | 231 kts | 133° |
| 2026-04-20 14:01 | 42.62036 | 23.35568 | 8092 ft | 228 kts | 126° |
| 2026-04-20 14:02 | 42.61484 | 23.37522 | 7992 ft | 222 kts | 96° |
| 2026-04-20 14:02 | 42.61398 | 23.39639 | 8007 ft | 228 kts | 93° |
| 2026-04-20 14:02 | 42.61326 | 23.41776 | 7988 ft | 229 kts | 92° |
| 2026-04-20 14:02 | 42.61268 | 23.43949 | 7985 ft | 228 kts | 92° |
| 2026-04-20 14:03 | 42.61211 | 23.46072 | 7981 ft | 227 kts | 92° |
| 2026-04-20 14:03 | 42.61151 | 23.48220 | 7977 ft | 227 kts | 92° |
| 2026-04-20 14:03 | 42.61090 | 23.50368 | 7841 ft | 228 kts | 92° |
| 2026-04-20 14:03 | 42.61026 | 23.52507 | 7641 ft | 225 kts | 92° |
| 2026-04-20 14:04 | 42.60962 | 23.54601 | 7476 ft | 224 kts | 92° |
| 2026-04-20 14:04 | 42.60898 | 23.56725 | 7297 ft | 224 kts | 92° |
| 2026-04-20 14:04 | 42.60833 | 23.58823 | 7122 ft | 224 kts | 92° |
| 2026-04-20 14:04 | 42.60768 | 23.60897 | 6950 ft | 212 kts | 92° |
| 2026-04-20 14:05 | 42.60706 | 23.62817 | 6780 ft | 199 kts | 92° |
| 2026-04-20 14:05 | 42.60646 | 23.64637 | 6571 ft | 187 kts | 92° |
| 2026-04-20 14:05 | 42.60589 | 23.66386 | 6309 ft | 185 kts | 93° |
| 2026-04-20 14:05 | 42.60542 | 23.68114 | 6048 ft | 185 kts | 93° |
| 2026-04-20 14:06 | 42.60772 | 23.69811 | 5728 ft | 183 kts | 58° |
| 2026-04-20 14:06 | 42.61566 | 23.71041 | 5502 ft | 171 kts | 36° |
| 2026-04-20 14:06 | 42.62646 | 23.71759 | 5293 ft | 171 kts | 12° |
| 2026-04-20 14:06 | 42.63801 | 23.72173 | 5029 ft | 171 kts | 11° |
| 2026-04-20 14:07 | 42.64946 | 23.72576 | 4739 ft | 170 kts | 12° |
| 2026-04-20 14:07 | 42.66085 | 23.72981 | 4453 ft | 168 kts | 11° |
| 2026-04-20 14:07 | 42.67211 | 23.73373 | 4183 ft | 167 kts | 7° |
| 2026-04-20 14:07 | 42.68301 | 23.73222 | 4070 ft | 156 kts | 324° |
| 2026-04-20 14:08 | 42.68951 | 23.72103 | 4165 ft | 156 kts | 281° |
| 2026-04-20 14:08 | 42.68902 | 23.70665 | 4120 ft | 150 kts | 258° |
| 2026-04-20 14:08 | 42.68702 | 23.69284 | 4114 ft | 150 kts | 259° |
| 2026-04-20 14:08 | 42.68526 | 23.67880 | 4110 ft | 151 kts | 261° |
| 2026-04-20 14:09 | 42.68402 | 23.66450 | 4114 ft | 151 kts | 264° |
| 2026-04-20 14:09 | 42.68351 | 23.65037 | 4110 ft | 152 kts | 268° |
| 2026-04-20 14:09 | 42.68354 | 23.63601 | 4109 ft | 152 kts | 270° |
| 2026-04-20 14:09 | 42.68389 | 23.62188 | 4107 ft | 151 kts | 272° |
| 2026-04-20 14:10 | 42.68468 | 23.60747 | 4114 ft | 151 kts | 273° |
| 2026-04-20 14:10 | 42.68556 | 23.59339 | 3923 ft | 149 kts | 274° |
| 2026-04-20 14:10 | 42.68642 | 23.57945 | 3805 ft | 150 kts | 274° |
| 2026-04-20 14:10 | 42.68733 | 23.56493 | 3590 ft | 159 kts | 274° |
| 2026-04-20 14:11 | 42.68824 | 23.55025 | 3349 ft | 154 kts | 274° |
| 2026-04-20 14:11 | 42.68915 | 23.53580 | 3162 ft | 152 kts | 274° |
| 2026-04-20 14:11 | 42.69001 | 23.52170 | 2955 ft | 150 kts | 275° |
| 2026-04-20 14:11 | 42.69093 | 23.50777 | 2760 ft | 146 kts | 276° |
| 2026-04-20 14:12 | 42.69170 | 23.49373 | 2561 ft | 148 kts | 273° |
| 2026-04-20 14:12 | 42.69215 | 23.47996 | 2321 ft | 147 kts | 277° |
| 2026-04-20 14:12 | 42.69313 | 23.46552 | 2338 ft | 151 kts | 276° |
| 2026-04-20 14:12 | 42.69413 | 23.45139 | 2036 ft | 156 kts | 276° |
| 2026-04-20 14:13 | 42.69520 | 23.43684 | 1811 ft | 152 kts | 274° |
| 2026-04-20 14:13 | 42.69607 | 23.42334 | 1748 ft | 119 kts | 275° |
| 2026-04-20 14:13 | 42.69657 | 23.41541 | 1750 ft | 51 kts | 275° |
| 2026-04-20 14:13 | 42.69667 | 23.41349 | 1750 ft | 0 kts | 272° |
| 2026-04-20 14:14 | 42.69668 | 23.41329 | 1750 ft | 7 kts | 276° |
| 2026-04-20 14:14 | 42.69675 | 23.41209 | 1751 ft | 17 kts | 275° |
| 2026-04-20 14:14 | 42.69680 | 23.41057 | 1750 ft | 17 kts | 271° |
| 2026-04-20 14:15 | 42.69668 | 23.40914 | 1752 ft | 12 kts | 255° |
| 2026-04-20 14:15 | 42.69640 | 23.40816 | 1754 ft | 9 kts | 245° |
| 2026-04-20 14:15 | 42.69613 | 23.40731 | 1754 ft | 9 kts | 244° |
| 2026-04-20 14:15 | 42.69584 | 23.40657 | 1754 ft | 8 kts | 243° |
| 2026-04-20 14:16 | 42.69552 | 23.40569 | 1755 ft | 10 kts | 242° |
| 2026-04-20 14:16 | 42.69506 | 23.40493 | 1757 ft | 11 kts | 213° |
| 2026-04-20 14:16 | 42.69419 | 23.40449 | 1758 ft | 12 kts | 197° |
| 2026-04-20 14:16 | 42.69331 | 23.40411 | 1761 ft | 13 kts | 197° |
| 2026-04-20 14:17 | 42.69239 | 23.40373 | 1762 ft | 13 kts | 195° |
| 2026-04-20 14:17 | 42.69168 | 23.40349 | 1764 ft | 8 kts | 198° |
| 2026-04-20 14:17 | 42.69109 | 23.40322 | 1765 ft | 9 kts | 197° |
| 2026-04-20 14:17 | 42.69061 | 23.40308 | 1766 ft | 5 kts | 189° |
| 2026-04-20 14:18 | 42.69038 | 23.40307 | 1766 ft | 0 kts | 167° |